Riverdale, Georgia
Current Conditions -  °F | °C
As of 4:52 PM on Thursday 27 Nov 2014 (Local Time) from KATL Reporting Station
Broken Clouds Broken Clouds  
Wind Chill: 35°   Ceiling: 4000
Heat Index: 42°   Visibility: 10mi
Dew Point: 26°   Wind: 15mph
Humidity: 53%   Direction: 330°NNW
Pressure: 30.32"   Gusts: 24mph
Location:  33.57°N, 84.41°W
Report Text: KATL 272152Z 33013G21KT 10SM BKN040 06/M03 A3032 RMK AO2 SLP271 T00561033
Loading
Personal Weather Stations






























Interactive Weather Map New forecast layout! Learn more

10-Day Weather Forecast

Advertisements
Track Severe Weather on mobile